Time;durP1;ratioP1;P1;durP2;ratioP2;P2;SDS_P1;SDS_P2;PMS_P1;PMS_P2;Temp;Humidity;BMP_temperature;BMP_pressure;BME280_temperature;BME280_humidity;BME280_pressure;Samples;Min_cycle;Max_cycle;Signal;HPM_P1;HPM_P2
2022/06/15 00:01:56;;;;;;;7.20;4.30;;;15.60;99.90;;;;;;5075147;28;20450;-38
2022/06/15 00:04:24;;;;;;;11.70;4.90;;;15.60;99.90;;;;;;5070515;28;20979;-39
2022/06/15 00:06:51;;;;;;;5.90;3.63;;;15.60;99.90;;;;;;5064745;28;20450;-37
2022/06/15 00:09:18;;;;;;;10.00;4.63;;;15.60;99.90;;;;;;5075801;28;20453;-37
2022/06/15 00:11:45;;;;;;;7.10;5.00;;;15.60;99.90;;;;;;5075931;28;20512;-37
2022/06/15 00:14:16;;;;;;;10.90;7.00;;;15.50;99.90;;;;;;5075348;28;20459;-37
2022/06/15 00:16:43;;;;;;;8.10;4.30;;;15.50;99.90;;;;;;5058494;28;20479;-39
2022/06/15 00:19:10;;;;;;;12.80;6.00;;;15.50;99.90;;;;;;5076064;28;20462;-35
2022/06/15 00:21:39;;;;;;;12.30;4.47;;;15.50;99.90;;;;;;5076011;28;20507;-40
2022/06/15 00:24:06;;;;;;;8.13;5.23;;;15.40;99.90;;;;;;5075994;28;20465;-38
2022/06/15 00:26:33;;;;;;;5.60;4.57;;;15.40;99.90;;;;;;5076105;28;20465;-39
2022/06/15 00:29:00;;;;;;;5.70;4.67;;;15.30;99.90;;;;;;5075656;28;20423;-41
2022/06/15 00:31:27;;;;;;;7.67;3.90;;;15.30;99.90;;;;;;5074723;28;20495;-38
2022/06/15 00:33:54;;;;;;;5.83;4.43;;;15.30;99.90;;;;;;5074330;28;20489;-38
2022/06/15 00:36:22;;;;;;;7.40;4.27;;;15.20;99.90;;;;;;5074463;28;20554;-47
2022/06/15 00:38:56;;;;;;;11.77;4.03;;;15.20;99.90;;;;;;5073939;28;20451;-41
2022/06/15 00:41:26;;;;;;;8.03;3.97;;;15.20;99.90;;;;;;5074444;28;20491;-38
2022/06/15 00:43:54;;;;;;;5.50;4.20;;;15.20;99.90;;;;;;5074514;28;20427;-46
2022/06/15 00:46:27;;;;;;;7.53;3.73;;;15.20;99.90;;;;;;5066314;28;21023;-47
2022/06/15 00:48:57;;;;;;;6.70;3.60;;;15.20;99.90;;;;;;5069838;28;20496;-38
2022/06/15 00:51:25;;;;;;;5.33;4.10;;;15.20;99.90;;;;;;5075346;28;20483;-38
2022/06/15 00:53:56;;;;;;;7.40;4.10;;;15.20;99.90;;;;;;5075441;28;20487;-38
2022/06/15 00:56:24;;;;;;;5.23;3.70;;;15.20;99.90;;;;;;5074982;28;20495;-37
2022/06/15 00:58:54;;;;;;;6.30;4.60;;;15.10;99.90;;;;;;5075880;28;20431;-35
2022/06/15 01:01:21;;;;;;;8.60;4.73;;;15.10;99.90;;;;;;5075029;28;20466;-37
2022/06/15 01:03:50;;;;;;;6.33;4.40;;;15.00;99.90;;;;;;5075195;28;20427;-39
2022/06/15 01:06:28;;;;;;;8.27;4.70;;;15.00;99.90;;;;;;5074679;28;20471;-37
2022/06/15 01:09:00;;;;;;;7.60;3.60;;;15.00;99.90;;;;;;5075495;28;20450;-38
2022/06/15 01:11:49;;;;;;;6.40;3.87;;;15.00;99.90;;;;;;5073888;28;20466;-39
2022/06/15 01:14:57;;;;;;;5.83;3.77;;;15.00;99.90;;;;;;5077809;28;20432;-36
2022/06/15 01:17:38;;;;;;;8.00;4.60;;;15.00;99.90;;;;;;5077968;28;20514;-37
2022/06/15 01:20:22;;;;;;;7.07;3.83;;;14.90;99.90;;;;;;5066982;28;20462;-38
2022/06/15 01:23:40;;;;;;;4.40;3.70;;;14.90;99.90;;;;;;5079260;28;20443;-35
2022/06/15 01:26:35;;;;;;;9.30;4.70;;;14.90;99.90;;;;;;5033775;28;20959;-37
2022/06/15 01:29:12;;;;;;;5.27;3.53;;;14.80;99.90;;;;;;5079323;28;20418;-42
2022/06/15 01:31:46;;;;;;;7.90;3.63;;;14.70;99.90;;;;;;5072998;28;20477;-37
2022/06/15 01:34:19;;;;;;;8.00;4.40;;;14.70;99.90;;;;;;5070498;28;20526;-39
2022/06/15 01:36:53;;;;;;;4.70;3.80;;;14.70;99.90;;;;;;5077551;28;20511;-39
2022/06/15 01:39:25;;;;;;;7.90;3.77;;;14.70;99.90;;;;;;5078409;28;20428;-38
2022/06/15 01:42:04;;;;;;;6.43;3.70;;;14.70;99.90;;;;;;5078305;28;20481;-39
2022/06/15 01:44:34;;;;;;;6.50;3.97;;;14.70;99.90;;;;;;5064009;28;20470;-38
2022/06/15 01:47:06;;;;;;;6.93;3.67;;;14.70;99.90;;;;;;5028505;28;20530;-39
2022/06/15 01:49:42;;;;;;;7.03;3.57;;;14.70;99.90;;;;;;5078278;28;20415;-39
2022/06/15 01:52:19;;;;;;;9.40;3.40;;;14.60;99.90;;;;;;5034475;28;20479;-36
2022/06/15 01:54:52;;;;;;;5.83;3.20;;;14.70;99.90;;;;;;5078648;28;20875;-37
2022/06/15 01:57:22;;;;;;;5.37;3.20;;;14.70;99.90;;;;;;5078190;28;20502;-38
2022/06/15 01:59:55;;;;;;;6.33;3.40;;;14.60;99.90;;;;;;5078428;28;20435;-42
2022/06/15 02:02:29;;;;;;;4.10;3.40;;;14.60;99.90;;;;;;5070864;28;20491;-40
2022/06/15 02:05:07;;;;;;;4.97;3.10;;;14.60;99.90;;;;;;5072714;28;20495;-38
2022/06/15 02:07:41;;;;;;;3.93;3.00;;;14.60;99.90;;;;;;5077104;28;20470;-37
2022/06/15 02:10:13;;;;;;;3.37;2.70;;;14.60;99.90;;;;;;5075305;28;20420;-38
2022/06/15 02:12:45;;;;;;;5.93;3.90;;;14.50;99.90;;;;;;5066229;28;20475;-37
2022/06/15 02:15:16;;;;;;;5.83;3.30;;;14.60;99.90;;;;;;5077940;28;20426;-38
2022/06/15 02:17:49;;;;;;;5.90;3.27;;;14.50;99.90;;;;;;5077373;28;20491;-38
2022/06/15 02:20:20;;;;;;;4.40;3.10;;;14.50;99.90;;;;;;5076376;28;20480;-38
2022/06/15 02:22:50;;;;;;;5.00;3.13;;;14.50;99.90;;;;;;5076723;28;20463;-37
2022/06/15 02:25:21;;;;;;;6.20;3.20;;;14.50;99.90;;;;;;5076477;28;20459;-38
2022/06/15 02:27:53;;;;;;;11.70;3.63;;;14.40;99.90;;;;;;5077540;28;20475;-39
2022/06/15 02:30:26;;;;;;;5.23;3.10;;;14.40;99.90;;;;;;5077475;28;20420;-37
2022/06/15 02:32:55;;;;;;;6.73;3.00;;;14.40;99.90;;;;;;5076973;28;20509;-40
2022/06/15 02:35:23;;;;;;;4.70;2.93;;;14.40;99.90;;;;;;5077850;28;20455;-36
2022/06/15 02:37:54;;;;;;;4.13;3.73;;;14.30;99.90;;;;;;5077166;28;20494;-35
2022/06/15 02:40:25;;;;;;;5.70;3.67;;;14.30;99.90;;;;;;5077188;28;20448;-39
2022/06/15 02:42:52;;;;;;;4.73;2.90;;;14.30;99.90;;;;;;5064646;28;20790;-39
2022/06/15 02:45:22;;;;;;;6.30;3.67;;;14.30;99.90;;;;;;5073951;28;20473;-38
2022/06/15 02:47:50;;;;;;;4.70;3.10;;;14.30;99.90;;;;;;5077665;28;20456;-41
2022/06/15 02:50:22;;;;;;;5.80;3.30;;;14.30;99.90;;;;;;5077381;28;20450;-38
2022/06/15 02:52:53;;;;;;;4.70;2.90;;;14.30;99.90;;;;;;5069032;28;20467;-39
2022/06/15 02:55:26;;;;;;;5.73;3.30;;;14.30;99.90;;;;;;5069470;28;20431;-38
2022/06/15 02:58:01;;;;;;;6.33;3.83;;;14.20;99.90;;;;;;5076813;28;20538;-38
2022/06/15 03:00:29;;;;;;;4.80;3.40;;;14.20;99.90;;;;;;5076782;28;20423;-37
2022/06/15 03:02:56;;;;;;;6.60;2.97;;;14.20;99.90;;;;;;5075883;28;20455;-36
2022/06/15 03:05:24;;;;;;;7.30;4.40;;;14.20;99.90;;;;;;5076160;28;20538;-46
2022/06/15 03:07:51;;;;;;;10.57;3.70;;;14.20;99.90;;;;;;5076044;28;20519;-36
2022/06/15 03:10:18;;;;;;;6.10;2.97;;;14.20;99.90;;;;;;5076235;28;20455;-42
2022/06/15 03:12:45;;;;;;;6.03;3.47;;;14.20;99.90;;;;;;5086436;28;20469;-43
2022/06/15 03:15:15;;;;;;;10.20;3.53;;;14.20;99.90;;;;;;5096356;28;20610;-37
2022/06/15 03:17:42;;;;;;;8.30;5.10;;;14.20;99.90;;;;;;5096986;28;20477;-38
2022/06/15 03:20:11;;;;;;;5.83;3.50;;;14.20;99.90;;;;;;5093057;28;20442;-38
2022/06/15 03:22:42;;;;;;;5.33;3.97;;;14.20;99.90;;;;;;5087499;28;20478;-42
2022/06/15 03:25:09;;;;;;;6.83;4.00;;;14.20;99.90;;;;;;5096871;28;20476;-43
2022/06/15 03:27:38;;;;;;;5.30;4.17;;;14.20;99.90;;;;;;5096507;28;20466;-35
2022/06/15 03:30:09;;;;;;;9.37;3.83;;;14.20;99.90;;;;;;5096405;28;20418;-36
2022/06/15 03:32:36;;;;;;;6.57;4.30;;;14.20;99.90;;;;;;5096574;28;20466;-36
2022/06/15 03:35:10;;;;;;;6.37;3.90;;;14.20;99.90;;;;;;5086507;28;20473;-40
2022/06/15 03:37:37;;;;;;;8.20;3.90;;;14.20;99.90;;;;;;5088173;28;20513;-39
2022/06/15 03:40:11;;;;;;;4.63;3.77;;;14.20;99.90;;;;;;5087672;28;20434;-37
2022/06/15 03:42:40;;;;;;;5.40;4.10;;;14.20;99.90;;;;;;5093628;28;20485;-37
2022/06/15 03:45:12;;;;;;;8.90;5.10;;;14.20;99.90;;;;;;5075553;28;20490;-38
2022/06/15 03:47:39;;;;;;;7.30;4.30;;;14.20;99.90;;;;;;5075261;28;20466;-37
2022/06/15 03:50:07;;;;;;;7.83;4.80;;;14.20;99.90;;;;;;5075016;28;20455;-38
2022/06/15 03:52:36;;;;;;;4.03;3.50;;;14.30;99.90;;;;;;5074775;28;20483;-39
2022/06/15 03:55:04;;;;;;;6.60;3.83;;;14.30;99.90;;;;;;5074836;28;20448;-37
2022/06/15 03:57:35;;;;;;;8.33;3.60;;;14.40;99.90;;;;;;5075139;28;20475;-35
2022/06/15 04:00:01;;;;;;;5.63;4.13;;;14.40;99.90;;;;;;5033386;28;20960;-37
2022/06/15 04:02:28;;;;;;;7.33;3.83;;;14.50;99.90;;;;;;5075131;28;20479;-39
2022/06/15 04:04:55;;;;;;;5.10;3.83;;;14.50;99.90;;;;;;5075507;28;20452;-44
2022/06/15 04:10:11;;;;;;;3.83;3.37;;;14.70;99.90;;;;;;5082201;28;20467;-38
2022/06/15 04:12:39;;;;;;;8.97;4.83;;;14.80;99.90;;;;;;5095271;28;20446;-39
2022/06/15 04:15:07;;;;;;;5.27;4.47;;;14.80;99.90;;;;;;5096098;28;20468;-40
2022/06/15 04:17:34;;;;;;;10.90;5.00;;;14.90;99.90;;;;;;5091636;28;20521;-37
2022/06/15 04:22:46;;;;;;;5.47;3.93;;;14.90;99.90;;;;;;5073125;28;20470;-38
2022/06/15 04:25:13;;;;;;;7.03;3.90;;;15.00;99.90;;;;;;5074673;28;20499;-36
2022/06/15 04:27:41;;;;;;;7.60;4.00;;;15.00;99.90;;;;;;5075109;28;20474;-37
2022/06/15 04:30:10;;;;;;;10.63;4.23;;;15.10;99.90;;;;;;5069956;28;20729;-39
2022/06/15 04:32:37;;;;;;;5.00;3.50;;;15.10;99.90;;;;;;5065466;28;20475;-35
2022/06/15 04:35:05;;;;;;;5.83;3.93;;;15.10;99.90;;;;;;5075525;28;20489;-39
2022/06/15 04:37:33;;;;;;;7.27;3.90;;;15.20;99.90;;;;;;5075811;28;20519;-38
2022/06/15 04:40:00;;;;;;;3.57;3.17;;;15.20;99.90;;;;;;5075747;28;20450;-38
2022/06/15 04:42:27;;;;;;;5.63;3.47;;;15.20;99.90;;;;;;5075681;28;20486;-46
2022/06/15 04:44:55;;;;;;;4.93;3.30;;;15.30;99.90;;;;;;5075676;28;20498;-36
2022/06/15 04:47:22;;;;;;;7.33;3.70;;;15.30;99.90;;;;;;5075865;28;20449;-40
2022/06/15 04:49:49;;;;;;;9.87;5.10;;;15.40;99.90;;;;;;5081672;28;20457;-34
2022/06/15 04:52:16;;;;;;;6.60;2.97;;;15.40;99.90;;;;;;5082165;28;20459;-36
2022/06/15 04:54:43;;;;;;;4.77;2.87;;;15.50;99.90;;;;;;5081638;28;20606;-37
2022/06/15 04:57:10;;;;;;;4.03;2.97;;;15.50;99.90;;;;;;5081282;28;20475;-39
2022/06/15 04:59:37;;;;;;;5.80;3.33;;;15.50;99.90;;;;;;5081598;28;20494;-41
2022/06/15 05:02:05;;;;;;;3.60;2.90;;;15.60;99.90;;;;;;5081464;28;20474;-37
2022/06/15 05:04:34;;;;;;;9.87;4.60;;;15.60;99.90;;;;;;5080845;28;20539;-38
2022/06/15 05:07:00;;;;;;;3.73;3.30;;;15.60;99.90;;;;;;5081436;28;20450;-37
2022/06/15 05:09:28;;;;;;;8.40;4.37;;;15.70;99.90;;;;;;5067359;28;20463;-40
2022/06/15 05:11:55;;;;;;;5.23;3.50;;;15.70;99.90;;;;;;5080104;28;20466;-38
2022/06/15 05:14:25;;;;;;;6.57;3.70;;;15.80;99.90;;;;;;5081297;28;20463;-37
2022/06/15 05:16:52;;;;;;;7.23;3.63;;;15.80;99.90;;;;;;5081685;28;20459;-37
2022/06/15 05:19:20;;;;;;;9.30;4.00;;;15.90;99.90;;;;;;5081496;28;20527;-38
2022/06/15 05:21:49;;;;;;;5.53;3.50;;;15.90;99.90;;;;;;5082034;28;20463;-44
2022/06/15 05:24:16;;;;;;;5.00;3.37;;;15.90;99.90;;;;;;5079550;28;20462;-39
2022/06/15 05:26:43;;;;;;;6.43;4.03;;;16.00;99.90;;;;;;5082421;28;20451;-47
2022/06/15 05:29:09;;;;;;;5.77;3.17;;;16.10;99.90;;;;;;5081476;28;20531;-37
2022/06/15 05:31:36;;;;;;;6.73;3.30;;;16.10;99.90;;;;;;5081884;28;20503;-38
2022/06/15 05:34:05;;;;;;;5.83;2.93;;;16.20;99.90;;;;;;5081396;28;20463;-39
2022/06/15 05:36:36;;;;;;;2.80;2.27;;;16.20;99.90;;;;;;5081216;28;20815;-39
2022/06/15 05:39:07;;;;;;;4.47;3.53;;;16.30;99.90;;;;;;5081137;28;20469;-38
2022/06/15 05:41:38;;;;;;;8.37;2.40;;;16.40;99.90;;;;;;5081745;28;20428;-37
2022/06/15 05:44:05;;;;;;;6.93;2.70;;;16.40;99.90;;;;;;5072758;28;20554;-39
2022/06/15 05:46:33;;;;;;;4.33;2.90;;;16.50;99.90;;;;;;5069614;28;20450;-37
2022/06/15 05:49:02;;;;;;;3.30;2.53;;;16.50;99.90;;;;;;5080846;28;20450;-37
2022/06/15 05:51:34;;;;;;;4.00;2.63;;;16.60;99.90;;;;;;5081565;28;20483;-41
2022/06/15 05:54:00;;;;;;;10.50;3.30;;;16.70;99.90;;;;;;5081494;28;20436;-37
2022/06/15 05:56:27;;;;;;;4.57;3.17;;;16.70;99.90;;;;;;5081096;28;20448;-36
2022/06/15 05:58:54;;;;;;;6.30;2.40;;;16.70;99.90;;;;;;5065359;28;20486;-37
2022/06/15 06:01:24;;;;;;;16.10;3.70;;;16.70;99.90;;;;;;5077440;28;20458;-38
2022/06/15 06:03:51;;;;;;;5.43;2.67;;;16.80;99.90;;;;;;5078228;28;20442;-45
2022/06/15 06:06:18;;;;;;;7.90;3.40;;;16.90;99.90;;;;;;5078546;28;20455;-42
2022/06/15 06:08:46;;;;;;;6.70;3.23;;;17.00;99.90;;;;;;5068600;28;20489;-40
2022/06/15 06:11:14;;;;;;;5.00;2.70;;;17.00;99.90;;;;;;5069841;28;20470;-37
2022/06/15 06:13:41;;;;;;;3.43;2.07;;;17.10;99.90;;;;;;5076398;28;20447;-39
2022/06/15 06:16:08;;;;;;;9.63;3.03;;;17.20;99.90;;;;;;5077296;28;20426;-39
2022/06/15 06:18:35;;;;;;;10.60;3.00;;;17.20;99.90;;;;;;5077613;28;20487;-41
2022/06/15 06:21:03;;;;;;;3.30;2.53;;;17.30;99.90;;;;;;5077317;28;20900;-42
2022/06/15 06:23:30;;;;;;;5.77;2.70;;;17.40;99.90;;;;;;5077574;28;20514;-38
2022/06/15 06:26:01;;;;;;;3.90;1.97;;;17.40;99.90;;;;;;5078138;28;20546;-45
2022/06/15 06:28:31;;;;;;;3.50;2.33;;;17.50;99.90;;;;;;5078870;28;20491;-41
2022/06/15 06:31:01;;;;;;;2.60;2.30;;;17.60;99.90;;;;;;5077494;28;20543;-37
2022/06/15 06:33:29;;;;;;;5.80;2.63;;;17.70;99.90;;;;;;5077713;28;20448;-37
2022/06/15 06:35:58;;;;;;;5.10;2.93;;;17.80;99.90;;;;;;5076944;28;20451;-37
2022/06/15 06:38:25;;;;;;;4.50;2.33;;;17.90;99.90;;;;;;5076896;28;20531;-38
2022/06/15 06:40:54;;;;;;;2.83;2.27;;;18.00;99.90;;;;;;5077435;28;20462;-43
2022/06/15 06:43:22;;;;;;;5.80;2.03;;;18.10;99.90;;;;;;5077556;28;20477;-37
2022/06/15 06:45:50;;;;;;;4.60;2.20;;;18.20;99.90;;;;;;5076929;28;20467;-38
2022/06/15 06:48:17;;;;;;;3.23;1.90;;;18.40;99.90;;;;;;5077276;28;20471;-35
2022/06/15 06:50:45;;;;;;;4.57;2.37;;;18.50;99.90;;;;;;5077181;28;20464;-38
2022/06/15 06:53:14;;;;;;;3.90;2.17;;;18.80;99.90;;;;;;5076989;28;20473;-35
2022/06/15 06:55:41;;;;;;;3.43;1.93;;;19.10;99.90;;;;;;5076951;28;20459;-37
2022/06/15 06:58:08;;;;;;;3.00;1.77;;;19.30;99.90;;;;;;5076788;28;20487;-35
2022/06/15 07:00:37;;;;;;;2.80;2.27;;;19.60;99.90;;;;;;5076552;28;20463;-37
2022/06/15 07:03:05;;;;;;;2.80;2.03;;;19.80;99.90;;;;;;5059126;28;20435;-39
2022/06/15 07:05:34;;;;;;;1.90;1.60;;;20.10;99.90;;;;;;5075975;28;20530;-40
2022/06/15 07:08:00;;;;;;;3.80;2.00;;;20.30;99.90;;;;;;5061438;28;20469;-38
2022/06/15 07:10:27;;;;;;;6.30;1.63;;;20.50;99.90;;;;;;5075325;28;20502;-37
2022/06/15 07:12:55;;;;;;;2.30;2.10;;;20.80;99.90;;;;;;5076885;28;20511;-38
2022/06/15 07:15:22;;;;;;;3.07;2.10;;;21.00;98.70;;;;;;5075878;28;20494;-39
2022/06/15 07:17:51;;;;;;;4.90;1.70;;;21.30;97.80;;;;;;5075704;28;20463;-39
2022/06/15 07:20:18;;;;;;;2.83;1.97;;;21.50;97.30;;;;;;5075939;28;20497;-38
2022/06/15 07:22:45;;;;;;;3.10;1.87;;;21.70;95.50;;;;;;5076158;28;20451;-38
2022/06/15 07:25:12;;;;;;;1.97;1.30;;;21.80;95.10;;;;;;5075393;28;20497;-39
2022/06/15 07:27:40;;;;;;;1.70;1.20;;;22.00;92.50;;;;;;5074568;28;20439;-38
2022/06/15 07:30:11;;;;;;;5.43;1.40;;;22.00;91.50;;;;;;5074804;28;20454;-38
2022/06/15 07:32:39;;;;;;;4.17;1.50;;;22.10;92.80;;;;;;5075217;28;20436;-38
2022/06/15 07:35:14;;;;;;;4.90;2.00;;;22.10;91.90;;;;;;5075366;28;20471;-38
2022/06/15 07:37:40;;;;;;;2.90;1.70;;;22.30;92.20;;;;;;5074989;28;20482;-37
2022/06/15 07:40:09;;;;;;;2.30;1.60;;;22.50;88.80;;;;;;5074196;28;20447;-38
2022/06/15 07:42:35;;;;;;;3.47;1.60;;;22.70;86.60;;;;;;5073270;28;20443;-37
2022/06/15 07:45:02;;;;;;;4.60;2.97;;;23.10;86.50;;;;;;5073840;28;20439;-38
2022/06/15 07:50:16;;;;;;;8.83;5.60;;;24.20;80.90;;;;;;5075376;28;20415;-38
2022/06/15 07:52:45;;;;;;;17.47;13.57;;;24.60;78.80;;;;;;5074648;28;20530;-40
2022/06/15 07:55:15;;;;;;;6.90;5.20;;;25.00;76.70;;;;;;5073635;28;20503;-37
2022/06/15 07:57:42;;;;;;;4.93;4.33;;;26.00;71.00;;;;;;5072944;28;20420;-38
2022/06/15 08:00:11;;;;;;;4.80;2.10;;;27.00;66.00;;;;;;5074550;28;20474;-38
2022/06/15 08:02:38;;;;;;;5.57;2.70;;;27.90;60.20;;;;;;5073501;28;20538;-39
2022/06/15 08:05:05;;;;;;;3.40;1.90;;;28.80;58.30;;;;;;5073085;28;20458;-39
2022/06/15 08:07:35;;;;;;;3.20;1.60;;;29.60;55.90;;;;;;5073089;28;20483;-39
2022/06/15 08:10:02;;;;;;;3.90;1.60;;;30.40;52.50;;;;;;5072907;28;20490;-38
2022/06/15 08:12:29;;;;;;;3.20;1.60;;;30.70;50.80;;;;;;5073338;28;20447;-39
2022/06/15 08:14:59;;;;;;;3.20;2.00;;;31.40;49.60;;;;;;5073926;28;20452;-41
2022/06/15 08:17:28;;;;;;;3.50;1.80;;;32.10;48.00;;;;;;5069114;28;20964;-43
2022/06/15 08:20:00;;;;;;;2.50;1.67;;;32.50;46.40;;;;;;5064196;28;20487;-38
2022/06/15 08:22:28;;;;;;;2.00;1.27;;;33.00;44.90;;;;;;5072240;28;20475;-40
2022/06/15 08:24:56;;;;;;;6.40;1.60;;;33.50;44.40;;;;;;5073769;28;20522;-39
2022/06/15 08:27:24;;;;;;;2.23;1.83;;;33.60;43.00;;;;;;5075096;28;20757;-36
2022/06/15 08:29:51;;;;;;;2.83;2.27;;;33.60;42.30;;;;;;5072974;28;20447;-38
2022/06/15 08:32:19;;;;;;;3.80;2.47;;;33.60;41.60;;;;;;5073136;28;20597;-40
2022/06/15 08:34:46;;;;;;;4.50;2.30;;;33.70;41.70;;;;;;5074651;28;20435;-38
2022/06/15 08:37:16;;;;;;;2.20;1.60;;;33.70;41.30;;;;;;5073294;28;20482;-38
2022/06/15 08:39:43;;;;;;;4.27;3.07;;;33.60;40.80;;;;;;5074577;28;20479;-37
2022/06/15 08:42:26;;;;;;;2.90;2.00;;;33.60;40.90;;;;;;5068929;28;20978;-37
2022/06/15 08:45:03;;;;;;;4.03;2.10;;;33.60;40.70;;;;;;5061604;28;20431;-39
2022/06/15 08:47:41;;;;;;;5.00;2.10;;;33.50;40.00;;;;;;5074247;28;20471;-38
2022/06/15 08:50:15;;;;;;;2.30;1.83;;;33.40;40.40;;;;;;5073337;28;20435;-36
2022/06/15 08:52:44;;;;;;;3.30;3.00;;;33.20;40.20;;;;;;5073153;28;20431;-36
2022/06/15 08:55:19;;;;;;;3.60;1.83;;;33.00;40.70;;;;;;5073891;28;20455;-36
2022/06/15 08:57:52;;;;;;;2.80;1.77;;;33.00;41.00;;;;;;5074627;28;20849;-38
2022/06/15 09:00:24;;;;;;;4.20;2.03;;;33.20;41.00;;;;;;5072795;28;21291;-38
2022/06/15 09:03:02;;;;;;;3.43;1.77;;;33.20;41.10;;;;;;5074675;28;20487;-36
2022/06/15 09:05:40;;;;;;;11.63;2.10;;;33.30;40.70;;;;;;5074586;28;20459;-39
2022/06/15 09:08:22;;;;;;;3.67;1.80;;;33.30;40.60;;;;;;5074317;28;20472;-38
2022/06/15 09:10:52;;;;;;;5.37;2.33;;;33.30;40.40;;;;;;5062033;28;20514;-37
2022/06/15 09:13:45;;;;;;;7.47;2.60;;;33.10;40.30;;;;;;5068477;28;20455;-37
2022/06/15 09:16:22;;;;;;;2.40;2.00;;;32.90;40.70;;;;;;5036766;28;20476;-43
2022/06/15 09:18:53;;;;;;;3.40;2.10;;;32.80;41.10;;;;;;5074522;28;20473;-37
2022/06/15 09:21:24;;;;;;;2.80;1.73;;;33.10;41.20;;;;;;5062485;28;20475;-42
2022/06/15 09:23:55;;;;;;;2.80;2.00;;;33.40;40.20;;;;;;5066435;28;20527;-38
2022/06/15 09:26:28;;;;;;;4.60;2.43;;;33.60;40.20;;;;;;5072545;28;20471;-38
2022/06/15 09:29:01;;;;;;;4.60;2.17;;;33.60;39.40;;;;;;5073832;28;20439;-39
2022/06/15 09:31:34;;;;;;;3.10;2.27;;;34.00;38.90;;;;;;5073046;28;20494;-39
2022/06/15 09:34:04;;;;;;;9.53;2.10;;;34.00;39.10;;;;;;5058913;28;20435;-38
2022/06/15 09:36:35;;;;;;;2.63;1.80;;;33.70;39.20;;;;;;5076553;28;20466;-36
2022/06/15 09:39:02;;;;;;;5.03;2.07;;;33.60;40.00;;;;;;5076297;28;20499;-40
2022/06/15 09:41:38;;;;;;;4.23;1.77;;;33.50;39.30;;;;;;5075566;28;20459;-38
2022/06/15 09:44:17;;;;;;;2.33;1.57;;;33.30;40.30;;;;;;5075143;28;20434;-38
2022/06/15 09:46:48;;;;;;;6.90;2.10;;;33.40;40.20;;;;;;5060431;28;20467;-37
2022/06/15 09:49:32;;;;;;;2.37;1.80;;;33.50;40.00;;;;;;5073646;28;20477;-38
2022/06/15 09:52:07;;;;;;;4.30;2.30;;;33.20;39.80;;;;;;5021588;28;20494;-40
2022/06/15 09:54:43;;;;;;;3.43;2.40;;;33.00;40.40;;;;;;5063580;28;20835;-38
2022/06/15 09:57:11;;;;;;;5.33;2.20;;;32.70;39.90;;;;;;5076132;28;20475;-37
2022/06/15 09:59:39;;;;;;;6.13;2.70;;;32.60;40.70;;;;;;5077315;28;20485;-37
2022/06/15 10:02:15;;;;;;;2.67;2.20;;;32.60;40.50;;;;;;5077229;28;20498;-36
2022/06/15 10:04:43;;;;;;;3.37;1.67;;;32.60;40.70;;;;;;5075684;28;20431;-37
2022/06/15 10:07:14;;;;;;;4.20;2.37;;;32.50;40.90;;;;;;5064532;28;20529;-40
2022/06/15 10:09:47;;;;;;;4.83;3.17;;;32.50;41.00;;;;;;5073709;28;21193;-43
2022/06/15 10:12:59;;;;;;;3.27;1.77;;;32.70;42.10;;;;;;5077553;28;20490;-39
2022/06/15 10:15:32;;;;;;;3.00;2.10;;;32.60;41.50;;;;;;5075751;28;20438;-41
2022/06/15 10:18:03;;;;;;;5.80;2.47;;;32.40;41.70;;;;;;5077080;28;20467;-40
2022/06/15 10:20:35;;;;;;;3.40;2.47;;;32.40;42.40;;;;;;5076368;28;20527;-39
2022/06/15 10:23:06;;;;;;;5.13;3.67;;;32.40;41.70;;;;;;5077152;28;20501;-36
2022/06/15 10:25:37;;;;;;;4.37;2.90;;;32.40;41.60;;;;;;5075957;28;20474;-39
2022/06/15 10:28:17;;;;;;;6.10;2.20;;;32.20;42.30;;;;;;5075385;28;20539;-38
2022/06/15 10:30:56;;;;;;;4.00;2.40;;;32.10;42.40;;;;;;5076660;28;20435;-38
2022/06/15 10:33:23;;;;;;;5.53;2.30;;;31.80;41.60;;;;;;5075478;28;20431;-36
2022/06/15 10:35:55;;;;;;;3.73;2.23;;;31.40;42.70;;;;;;5074915;28;20461;-38
2022/06/15 10:38:22;;;;;;;5.20;2.80;;;31.10;43.60;;;;;;5076289;28;20455;-37
2022/06/15 10:41:45;;;;;;;7.23;2.83;;;31.00;43.90;;;;;;5075294;28;20503;-37
2022/06/15 10:43:50;;;;;;;7.17;2.83;;;30.90;43.40;;;;;;5073764;28;20493;-38
2022/06/15 10:46:21;;;;;;;3.43;3.13;;;30.80;43.40;;;;;;5074723;28;20545;-37
2022/06/15 10:48:50;;;;;;;4.70;2.97;;;30.60;44.10;;;;;;5073642;28;20478;-42
2022/06/15 10:51:28;;;;;;;3.33;2.73;;;30.40;44.50;;;;;;5075844;28;20457;-37
2022/06/15 10:54:15;;;;;;;2.97;2.20;;;30.20;44.50;;;;;;5074103;28;20562;-38
2022/06/15 11:02:29;;;;;;;3.77;2.80;;;29.50;45.50;;;;;;5076816;28;20458;-53
2022/06/15 11:04:59;;;;;;;6.53;3.20;;;29.20;46.60;;;;;;5076003;28;20502;-39
2022/06/15 11:07:31;;;;;;;3.00;2.50;;;29.00;46.10;;;;;;5076211;28;20562;-36
2022/06/15 11:10:13;;;;;;;3.47;2.63;;;28.60;46.70;;;;;;5073819;28;20477;-38
2022/06/15 11:12:45;;;;;;;6.03;2.63;;;28.50;47.60;;;;;;5073729;28;20842;-38
2022/06/15 11:18:31;;;;;;;4.07;2.73;;;28.40;47.60;;;;;;5046935;28;20450;-42
2022/06/15 11:21:05;;;;;;;4.10;2.60;;;28.50;47.80;;;;;;5075624;28;20501;-38
2022/06/15 11:23:43;;;;;;;4.73;2.80;;;28.40;47.70;;;;;;5076012;28;20469;-37
2022/06/15 11:29:15;;;;;;;3.00;2.40;;;28.30;47.40;;;;;;5059007;28;20427;-38
2022/06/15 11:31:43;;;;;;;7.83;2.93;;;28.30;47.50;;;;;;5075538;28;20496;-37
2022/06/15 11:34:19;;;;;;;2.93;2.10;;;28.30;47.10;;;;;;5075970;28;20542;-38
2022/06/15 11:36:53;;;;;;;5.13;2.67;;;28.20;47.20;;;;;;5076508;28;20442;-35
2022/06/15 11:39:25;;;;;;;6.07;3.13;;;28.10;47.90;;;;;;5076272;28;20495;-38
2022/06/15 11:41:54;;;;;;;3.27;2.20;;;28.10;47.30;;;;;;5076237;28;20408;-38
2022/06/15 11:44:24;;;;;;;4.13;2.60;;;28.30;47.30;;;;;;5075801;28;20478;-38
2022/06/15 11:47:03;;;;;;;3.37;2.40;;;28.30;46.50;;;;;;5074160;28;20458;-37
2022/06/15 11:49:40;;;;;;;5.57;2.30;;;28.10;47.00;;;;;;5075515;28;20447;-37
2022/06/15 11:52:37;;;;;;;4.60;2.40;;;28.00;46.70;;;;;;5074510;28;20439;-36
2022/06/15 11:55:25;;;;;;;4.53;2.20;;;27.90;47.80;;;;;;5075768;28;20493;-37
2022/06/15 11:58:17;;;;;;;3.07;2.67;;;27.60;47.60;;;;;;5072496;28;20462;-35
2022/06/15 12:00:49;;;;;;;3.00;2.37;;;27.60;48.70;;;;;;5073902;28;20467;-39
2022/06/15 12:03:40;;;;;;;6.47;2.63;;;27.50;47.90;;;;;;5074241;28;20536;-36
2022/06/15 12:06:19;;;;;;;6.90;2.63;;;27.20;48.80;;;;;;5074881;28;20426;-38
2022/06/15 12:08:52;;;;;;;10.00;5.17;;;27.20;48.90;;;;;;5074394;28;20473;-38
2022/06/15 12:14:18;;;;;;;6.30;2.30;;;27.40;48.40;;;;;;5074851;28;20431;-35
2022/06/15 12:16:53;;;;;;;5.73;3.83;;;27.40;48.30;;;;;;5074609;28;20519;-36
2022/06/15 12:19:29;;;;;;;3.50;2.83;;;27.40;50.50;;;;;;5073004;28;20486;-39
2022/06/15 12:22:02;;;;;;;3.33;2.87;;;27.50;48.60;;;;;;5075852;28;20482;-37
2022/06/15 12:24:41;;;;;;;6.60;5.10;;;27.50;48.80;;;;;;5075282;28;20503;-38
2022/06/15 12:27:15;;;;;;;4.70;2.70;;;27.50;48.70;;;;;;5075310;28;20511;-38
2022/06/15 12:29:48;;;;;;;2.70;2.50;;;27.50;48.90;;;;;;5074729;28;20482;-38
2022/06/15 12:32:34;;;;;;;6.47;3.00;;;27.40;48.30;;;;;;5074481;28;20503;-36
2022/06/15 12:35:10;;;;;;;4.40;3.33;;;27.30;48.10;;;;;;5058412;28;20835;-38
2022/06/15 12:37:46;;;;;;;3.23;2.43;;;27.20;48.90;;;;;;5074693;28;20431;-37
2022/06/15 12:40:21;;;;;;;10.07;2.90;;;27.10;49.00;;;;;;5074687;28;20558;-35
2022/06/15 12:42:51;;;;;;;2.80;2.50;;;27.00;48.80;;;;;;5074642;28;20465;-37
2022/06/15 12:45:30;;;;;;;5.37;2.50;;;26.80;48.90;;;;;;5074618;28;20454;-37
2022/06/15 12:48:00;;;;;;;3.80;2.60;;;26.70;49.50;;;;;;5074363;28;20427;-35
2022/06/15 12:50:39;;;;;;;3.50;2.20;;;26.80;49.60;;;;;;5074058;28;20446;-43
2022/06/15 12:53:20;;;;;;;5.30;3.00;;;26.80;49.40;;;;;;5074332;28;20448;-37
2022/06/15 12:55:54;;;;;;;7.13;2.20;;;26.80;50.30;;;;;;5074566;28;20414;-37
2022/06/15 12:58:32;;;;;;;5.80;2.77;;;27.00;49.50;;;;;;5074496;28;20522;-40
2022/06/15 13:01:07;;;;;;;5.73;3.10;;;27.20;48.90;;;;;;5073826;28;20497;-37
2022/06/15 13:03:46;;;;;;;9.77;2.70;;;27.30;49.50;;;;;;5073940;28;20467;-38
2022/06/15 13:06:25;;;;;;;3.13;2.23;;;27.40;49.60;;;;;;5074120;28;20454;-37
2022/06/15 13:09:08;;;;;;;3.17;2.53;;;27.40;48.60;;;;;;5074922;28;20462;-38
2022/06/15 13:11:46;;;;;;;3.00;2.67;;;27.40;48.20;;;;;;5078381;28;20431;-37
2022/06/15 13:14:16;;;;;;;4.50;2.93;;;27.20;48.20;;;;;;5076910;28;20495;-37
2022/06/15 13:16:57;;;;;;;4.90;2.50;;;27.20;48.50;;;;;;5075949;28;20467;-38
2022/06/15 13:19:30;;;;;;;5.37;3.20;;;27.20;47.90;;;;;;5075657;28;20481;-37
2022/06/15 13:22:07;;;;;;;3.23;2.63;;;27.20;48.30;;;;;;5076445;28;20451;-39
2022/06/15 13:24:51;;;;;;;3.23;2.50;;;27.20;48.20;;;;;;5076681;28;20542;-39
2022/06/15 13:27:25;;;;;;;4.50;3.00;;;27.30;48.00;;;;;;5077233;28;20428;-40
2022/06/15 13:29:54;;;;;;;3.57;2.20;;;27.40;48.00;;;;;;5076811;28;20454;-38
2022/06/15 13:32:58;;;;;;;6.70;2.07;;;27.50;48.30;;;;;;5077520;28;20485;-39